createdAt,value
2018-07-06T00:00:47.256Z,88.40
2018-07-06T00:03:39.014Z,88.40
2018-07-06T00:06:30.820Z,88.40
2018-07-06T00:09:22.606Z,88.40
2018-07-06T00:12:14.291Z,88.30
2018-07-06T00:15:06.073Z,88.40
2018-07-06T00:17:58.027Z,88.60
2018-07-06T00:20:50.138Z,88.70
2018-07-06T00:23:41.920Z,88.70
2018-07-06T00:26:34.029Z,88.70
2018-07-06T00:29:26.389Z,88.80
2018-07-06T00:32:18.047Z,88.80
2018-07-06T00:35:09.933Z,88.70
2018-07-06T00:40:48.927Z,89.00
2018-07-06T00:43:40.981Z,88.70
2018-07-06T00:46:32.874Z,88.80
2018-07-06T00:49:25.052Z,88.80
2018-07-06T00:52:17.311Z,88.90
2018-07-06T00:55:08.827Z,89.00
2018-07-06T00:58:00.617Z,89.20
2018-07-06T01:00:52.208Z,89.30
2018-07-06T01:03:44.069Z,89.30
2018-07-06T01:06:36.061Z,89.30
2018-07-06T01:09:27.920Z,89.30
2018-07-06T01:12:25.742Z,89.30
2018-07-06T01:15:23.500Z,89.20
2018-07-06T01:18:16.752Z,89.60
2018-07-06T01:21:08.398Z,89.10
2018-07-06T01:24:00.007Z,89.20
2018-07-06T01:26:51.944Z,89.20
2018-07-06T01:29:44.179Z,89.20
2018-07-06T01:32:35.825Z,89.40
2018-07-06T01:35:27.706Z,89.60
2018-07-06T01:38:19.786Z,89.60
2018-07-06T01:41:11.785Z,89.50
2018-07-06T01:44:03.742Z,89.60
2018-07-06T01:46:55.782Z,90.10
2018-07-06T01:49:47.909Z,89.20
2018-07-06T01:52:39.669Z,89.20
2018-07-06T01:55:31.933Z,89.10
2018-07-06T01:58:23.861Z,89.00
2018-07-06T02:01:15.583Z,89.20
2018-07-06T02:04:07.901Z,89.20
2018-07-06T02:06:59.571Z,89.20
2018-07-06T02:09:51.485Z,89.30
2018-07-06T02:12:43.226Z,89.40
2018-07-06T02:15:35.504Z,89.40
2018-07-06T02:18:27.144Z,89.40
2018-07-06T02:21:18.922Z,89.30
2018-07-06T02:24:10.756Z,89.30
2018-07-06T02:27:02.512Z,89.60
2018-07-06T02:29:54.456Z,89.20
2018-07-06T02:32:46.351Z,89.30
2018-07-06T02:35:37.972Z,89.40
2018-07-06T02:38:30.026Z,89.40
2018-07-06T02:41:21.973Z,89.40
2018-07-06T02:44:13.756Z,89.40
2018-07-06T02:47:05.665Z,89.60
2018-07-06T02:49:57.991Z,89.50
2018-07-06T02:52:49.772Z,89.30
2018-07-06T02:55:43.042Z,89.40
2018-07-06T02:58:35.204Z,90.00
2018-07-06T03:01:27.285Z,89.30
2018-07-06T03:04:19.359Z,89.40
2018-07-06T03:07:11.470Z,89.60
2018-07-06T03:10:03.438Z,89.60
2018-07-06T03:12:55.742Z,89.80
2018-07-06T03:15:47.715Z,89.70
2018-07-06T03:18:39.684Z,89.50
2018-07-06T03:21:31.203Z,89.60
2018-07-06T03:24:23.081Z,89.70
2018-07-06T03:27:15.098Z,89.60
2018-07-06T03:30:06.754Z,89.50
2018-07-06T03:32:58.456Z,89.40
2018-07-06T03:35:50.638Z,89.30
2018-07-06T03:38:42.402Z,89.50
2018-07-06T03:41:34.134Z,89.70
2018-07-06T03:44:26.102Z,90.20
2018-07-06T03:47:17.630Z,89.90
2018-07-06T03:50:09.663Z,89.80
2018-07-06T03:53:01.545Z,90.00
2018-07-06T03:55:53.225Z,90.10
2018-07-06T03:58:44.991Z,90.20
2018-07-06T04:01:37.298Z,90.30
2018-07-06T04:04:29.181Z,90.30
2018-07-06T04:07:21.278Z,90.30
2018-07-06T04:10:13.253Z,90.20
2018-07-06T04:13:05.027Z,90.20
2018-07-06T04:15:56.768Z,90.30
2018-07-06T04:18:48.566Z,90.40
2018-07-06T04:21:40.535Z,90.40
2018-07-06T04:24:32.611Z,90.40
2018-07-06T04:27:25.208Z,90.40
2018-07-06T04:30:16.788Z,90.40
2018-07-06T04:33:08.538Z,90.30
2018-07-06T04:36:00.379Z,90.30
2018-07-06T04:38:51.994Z,90.40
2018-07-06T04:41:43.782Z,90.40
2018-07-06T04:44:36.120Z,90.50
2018-07-06T04:47:27.512Z,90.40
2018-07-06T04:50:19.282Z,90.40
2018-07-06T04:53:11.007Z,90.30
2018-07-06T04:56:03.202Z,90.30
2018-07-06T04:58:54.987Z,90.30
2018-07-06T05:01:46.892Z,90.30
2018-07-06T05:04:39.909Z,90.20
2018-07-06T05:07:31.975Z,90.20
2018-07-06T05:10:24.049Z,90.20
2018-07-06T05:13:16.030Z,90.30
2018-07-06T05:16:07.559Z,90.30
2018-07-06T05:18:59.372Z,90.40
2018-07-06T05:21:51.443Z,90.40
2018-07-06T05:24:43.415Z,90.30
2018-07-06T05:27:35.070Z,90.40
2018-07-06T05:33:12.795Z,90.40
2018-07-06T05:36:04.229Z,90.40
2018-07-06T05:38:55.464Z,90.40
2018-07-06T05:41:47.092Z,90.40
2018-07-06T05:44:39.397Z,90.40
2018-07-06T05:47:31.185Z,90.50
2018-07-06T05:50:22.919Z,90.40
2018-07-06T05:53:14.295Z,90.40
2018-07-06T05:56:06.377Z,90.50
2018-07-06T05:58:58.400Z,90.50
2018-07-06T06:01:50.401Z,90.50
2018-07-06T06:04:42.689Z,90.50
2018-07-06T06:07:23.549Z,90.40
2018-07-06T06:09:58.132Z,90.50
2018-07-06T06:15:07.540Z,90.50
2018-07-06T06:17:42.300Z,90.50
2018-07-06T06:20:17.560Z,90.50
2018-07-06T06:22:52.874Z,90.60
2018-07-06T06:25:27.011Z,90.60
2018-07-06T06:28:01.658Z,90.60
2018-07-06T06:30:36.623Z,90.60
2018-07-06T06:33:11.375Z,90.70
2018-07-06T06:35:46.652Z,90.50
2018-07-06T06:38:21.163Z,90.50
2018-07-06T06:40:55.556Z,90.50
2018-07-06T06:43:30.529Z,90.50
2018-07-06T06:46:04.896Z,90.40
2018-07-06T06:48:39.748Z,90.40
2018-07-06T06:51:14.553Z,90.50
2018-07-06T06:53:49.223Z,90.50
2018-07-06T06:56:24.228Z,90.60
2018-07-06T06:58:59.432Z,90.60
2018-07-06T07:01:34.297Z,90.70
2018-07-06T07:04:09.187Z,90.70
2018-07-06T07:06:44.004Z,90.70
2018-07-06T07:09:19.550Z,90.80
2018-07-06T07:11:54.424Z,90.80
2018-07-06T07:14:29.522Z,90.80
2018-07-06T07:17:03.763Z,90.70
2018-07-06T07:19:38.521Z,90.70
2018-07-06T07:22:13.531Z,90.80
2018-07-06T07:24:48.424Z,90.80
2018-07-06T07:27:22.693Z,90.90
2018-07-06T07:29:57.681Z,90.90
2018-07-06T07:32:33.058Z,90.90
2018-07-06T07:35:08.253Z,91.10
2018-07-06T07:37:43.055Z,90.90
2018-07-06T07:40:18.021Z,90.90
2018-07-06T07:42:52.832Z,90.90
2018-07-06T07:45:27.861Z,91.10
2018-07-06T07:48:03.090Z,90.90
2018-07-06T07:50:54.141Z,90.90
2018-07-06T07:53:46.058Z,90.90
2018-07-06T07:56:21.184Z,90.80
2018-07-06T07:58:56.069Z,90.80
2018-07-06T08:01:31.004Z,90.90
2018-07-06T08:04:05.833Z,91.20
2018-07-06T08:06:40.809Z,91.00
2018-07-06T08:09:16.058Z,91.00
2018-07-06T08:11:52.989Z,90.80
2018-07-06T08:14:27.452Z,90.70
2018-07-06T08:17:02.752Z,90.60
2018-07-06T08:19:37.597Z,90.50
2018-07-06T08:22:12.557Z,90.50
2018-07-06T08:24:47.244Z,90.40
2018-07-06T08:27:22.005Z,90.70
2018-07-06T08:29:56.677Z,90.40
2018-07-06T08:32:31.617Z,90.40
2018-07-06T08:35:23.200Z,90.50
2018-07-06T08:38:01.650Z,90.40
2018-07-06T08:40:36.416Z,90.30
2018-07-06T08:43:11.517Z,90.30
2018-07-06T08:45:46.201Z,90.40
2018-07-06T08:48:21.185Z,90.60
2018-07-06T08:50:55.896Z,90.60
2018-07-06T08:53:30.972Z,90.80
2018-07-06T08:56:05.897Z,91.10
2018-07-06T08:58:40.630Z,90.80
2018-07-06T09:01:15.527Z,90.90
2018-07-06T09:03:50.454Z,90.90
2018-07-06T09:06:25.004Z,90.80
2018-07-06T09:09:00.267Z,90.80
2018-07-06T09:11:34.811Z,90.90
2018-07-06T09:14:09.876Z,90.90
2018-07-06T09:16:44.725Z,91.00
2018-07-06T09:19:19.927Z,91.10
2018-07-06T09:21:54.693Z,91.20
2018-07-06T09:24:29.255Z,91.30
2018-07-06T09:27:04.204Z,91.10
2018-07-06T09:29:39.254Z,91.20
2018-07-06T09:32:14.044Z,91.40
2018-07-06T09:34:48.466Z,91.60
2018-07-06T09:37:23.508Z,91.80
2018-07-06T09:39:58.206Z,91.80
2018-07-06T09:42:32.819Z,91.70
2018-07-06T09:45:07.607Z,91.40
2018-07-06T09:47:42.197Z,91.30
2018-07-06T09:52:51.676Z,90.70
2018-07-06T09:55:26.436Z,90.70
2018-07-06T09:58:01.185Z,90.80
2018-07-06T10:00:42.180Z,90.80
2018-07-06T10:03:16.971Z,91.00
2018-07-06T10:05:52.059Z,90.80
2018-07-06T10:08:26.847Z,90.40
2018-07-06T10:11:01.891Z,90.40
2018-07-06T10:13:36.596Z,90.30
2018-07-06T10:16:11.672Z,90.40
2018-07-06T10:18:46.736Z,90.50
2018-07-06T10:21:21.517Z,90.70
2018-07-06T10:23:56.311Z,90.90
2018-07-06T10:26:30.486Z,90.80
2018-07-06T10:30:24.305Z,90.60
2018-07-06T10:32:59.426Z,90.50
2018-07-06T10:35:33.875Z,90.40
2018-07-06T10:38:08.181Z,90.40
2018-07-06T10:40:43.118Z,90.50
2018-07-06T10:43:17.982Z,90.40
2018-07-06T10:45:52.088Z,90.50
2018-07-06T10:48:26.801Z,90.30
2018-07-06T10:51:01.417Z,90.40
2018-07-06T10:53:36.044Z,90.50
2018-07-06T10:56:10.950Z,90.50
2018-07-06T10:58:45.904Z,90.70
2018-07-06T11:01:20.815Z,90.30
2018-07-06T11:03:55.500Z,90.10
2018-07-06T11:06:30.390Z,90.00
2018-07-06T11:09:05.444Z,90.00
2018-07-06T11:11:40.211Z,90.00
2018-07-06T11:14:15.098Z,90.10
2018-07-06T11:16:50.294Z,90.20
2018-07-06T11:19:24.950Z,90.40
2018-07-06T11:21:59.660Z,90.60
2018-07-06T11:24:34.509Z,90.70
2018-07-06T11:27:09.204Z,90.70
2018-07-06T11:29:44.015Z,90.70
2018-07-06T11:32:19.025Z,90.60
2018-07-06T11:34:54.077Z,90.30
2018-07-06T11:37:28.686Z,90.20
2018-07-06T11:40:03.718Z,90.00
2018-07-06T11:42:38.576Z,90.00
2018-07-06T11:45:13.417Z,90.10
2018-07-06T11:47:48.317Z,90.10
2018-07-06T11:50:22.907Z,90.20
2018-07-06T11:52:57.582Z,90.20
2018-07-06T11:55:32.067Z,90.20
2018-07-06T11:58:06.603Z,90.20
2018-07-06T12:00:41.253Z,90.00
2018-07-06T12:03:16.085Z,89.70
2018-07-06T12:05:50.811Z,89.40
2018-07-06T12:08:25.616Z,89.30
2018-07-06T12:11:00.203Z,88.30
2018-07-06T12:13:35.152Z,87.70
2018-07-06T12:16:09.857Z,87.30
2018-07-06T12:18:44.905Z,87.70
2018-07-06T12:21:19.762Z,88.20
2018-07-06T12:23:54.327Z,88.30
2018-07-06T12:26:28.947Z,88.70
2018-07-06T12:29:03.515Z,89.10
2018-07-06T12:31:38.010Z,89.60
2018-07-06T12:36:47.200Z,90.20
2018-07-06T12:39:22.502Z,90.30
2018-07-06T12:41:57.217Z,90.60
2018-07-06T12:44:32.049Z,90.90
2018-07-06T12:47:06.588Z,91.00
2018-07-06T12:49:41.496Z,90.90
2018-07-06T12:52:16.511Z,90.90
2018-07-06T12:54:51.374Z,90.80
2018-07-06T12:57:25.975Z,90.70
2018-07-06T13:00:00.885Z,90.60
2018-07-06T13:02:35.775Z,90.60
2018-07-06T13:05:10.024Z,90.40
2018-07-06T13:07:45.021Z,90.10
2018-07-06T13:10:20.585Z,90.00
2018-07-06T13:12:55.352Z,90.10
2018-07-06T13:15:30.342Z,89.60
2018-07-06T13:18:05.104Z,89.70
2018-07-06T13:20:40.057Z,89.70
2018-07-06T13:23:14.818Z,89.80
2018-07-06T13:25:49.673Z,89.60
2018-07-06T13:28:23.891Z,89.60
2018-07-06T13:30:58.930Z,89.60
2018-07-06T13:33:33.536Z,89.70
2018-07-06T13:36:08.679Z,89.70
2018-07-06T13:38:43.080Z,89.50
2018-07-06T13:41:17.987Z,89.40
2018-07-06T13:43:53.102Z,89.30
2018-07-06T13:46:27.334Z,89.20
2018-07-06T13:49:02.142Z,89.00
2018-07-06T13:51:36.839Z,88.60
2018-07-06T13:54:11.322Z,88.50
2018-07-06T13:56:46.066Z,88.50
2018-07-06T13:59:20.933Z,88.00
2018-07-06T14:01:55.551Z,88.60
2018-07-06T14:04:30.225Z,87.90
2018-07-06T14:07:05.344Z,88.20
2018-07-06T14:09:39.759Z,88.20
2018-07-06T14:12:14.526Z,88.60
2018-07-06T14:14:49.583Z,88.80
2018-07-06T14:17:24.007Z,89.30
2018-07-06T14:19:58.902Z,89.50
2018-07-06T14:22:33.506Z,89.40
2018-07-06T14:25:08.501Z,89.60
2018-07-06T14:27:42.807Z,89.70
2018-07-06T14:30:17.626Z,89.80
2018-07-06T14:32:52.220Z,89.60
2018-07-06T14:35:27.117Z,89.50
2018-07-06T14:38:01.463Z,89.30
2018-07-06T14:40:36.173Z,90.00
2018-07-06T14:43:10.826Z,89.60
2018-07-06T14:45:45.558Z,89.50
2018-07-06T14:48:20.248Z,89.50
2018-07-06T14:50:54.964Z,89.80
2018-07-06T14:53:29.727Z,89.50
2018-07-06T14:56:05.733Z,89.10
2018-07-06T14:58:39.999Z,88.40
2018-07-06T15:01:14.699Z,88.20
2018-07-06T15:03:49.859Z,87.90
2018-07-06T15:06:25.267Z,87.90
2018-07-06T15:08:59.805Z,88.10
2018-07-06T15:11:34.069Z,88.00
2018-07-06T15:14:08.823Z,87.60
2018-07-06T15:19:18.184Z,88.10
2018-07-06T15:21:52.915Z,87.90
2018-07-06T15:24:27.753Z,87.60
2018-07-06T15:27:02.311Z,87.40
2018-07-06T15:29:37.062Z,87.60
2018-07-06T15:32:11.559Z,87.80
2018-07-06T15:34:46.424Z,88.00
2018-07-06T15:37:20.992Z,87.90
2018-07-06T15:39:55.702Z,87.60
2018-07-06T15:42:30.416Z,87.00
2018-07-06T15:45:05.337Z,87.10
2018-07-06T15:47:39.766Z,87.10
2018-07-06T15:50:14.587Z,87.10
2018-07-06T15:52:49.309Z,87.20
2018-07-06T15:55:24.045Z,87.10
2018-07-06T15:57:58.654Z,87.10
2018-07-06T16:00:33.694Z,86.90
2018-07-06T16:03:07.956Z,86.80
2018-07-06T16:05:43.157Z,87.00
2018-07-06T16:08:17.600Z,87.00
2018-07-06T16:10:53.329Z,86.80
2018-07-06T16:13:28.371Z,85.50
2018-07-06T16:16:03.484Z,85.50
2018-07-06T16:18:37.701Z,86.10
2018-07-06T16:23:46.858Z,85.50
2018-07-06T16:26:21.988Z,85.10
2018-07-06T16:28:56.997Z,84.90
2018-07-06T16:31:31.807Z,85.40
2018-07-06T16:34:06.744Z,85.40
2018-07-06T16:36:42.288Z,85.30
2018-07-06T16:39:17.332Z,84.80
2018-07-06T16:41:52.606Z,84.30
2018-07-06T16:44:26.818Z,83.80
2018-07-06T16:47:02.011Z,84.00
2018-07-06T16:49:36.510Z,84.50
2018-07-06T16:54:45.929Z,84.60
2018-07-06T16:57:21.077Z,85.10
2018-07-06T16:59:55.689Z,85.00
2018-07-06T17:02:30.348Z,84.90
2018-07-06T17:05:05.140Z,85.00
2018-07-06T17:07:39.483Z,84.30
2018-07-06T17:10:14.582Z,84.80
2018-07-06T17:12:49.996Z,84.80
2018-07-06T17:15:24.794Z,84.60
2018-07-06T17:17:59.350Z,84.00
2018-07-06T17:20:34.727Z,84.30
2018-07-06T17:23:09.052Z,84.60
2018-07-06T17:25:44.024Z,84.40
2018-07-06T17:28:19.350Z,84.50
2018-07-06T17:30:53.881Z,84.40
2018-07-06T17:33:28.829Z,84.40
2018-07-06T17:36:03.385Z,84.70
2018-07-06T17:38:37.909Z,85.10
2018-07-06T17:41:13.106Z,85.30
2018-07-06T17:43:48.049Z,85.70
2018-07-06T17:46:22.995Z,85.90
2018-07-06T17:48:57.685Z,86.50
2018-07-06T17:51:32.746Z,86.00
2018-07-06T17:54:07.354Z,86.20
2018-07-06T17:56:42.263Z,86.10
2018-07-06T17:59:18.099Z,86.00
2018-07-06T18:01:52.776Z,86.40
2018-07-06T18:04:27.009Z,86.50
2018-07-06T18:07:02.004Z,86.00
2018-07-06T18:09:36.979Z,85.90
2018-07-06T18:12:11.584Z,86.20
2018-07-06T18:14:46.549Z,86.20
2018-07-06T18:17:21.453Z,86.60
2018-07-06T18:19:56.280Z,86.30
2018-07-06T18:22:31.604Z,86.60
2018-07-06T18:25:06.910Z,86.70
2018-07-06T18:27:41.405Z,86.60
2018-07-06T18:30:15.847Z,86.60
2018-07-06T18:32:50.759Z,86.60
2018-07-06T18:35:25.178Z,86.90
2018-07-06T18:38:00.242Z,87.00
2018-07-06T18:40:34.906Z,87.10
2018-07-06T18:43:09.790Z,87.30
2018-07-06T18:45:43.887Z,87.50
2018-07-06T18:48:18.860Z,87.60
2018-07-06T18:50:53.528Z,87.70
2018-07-06T18:53:28.981Z,87.90
2018-07-06T18:56:03.361Z,87.80
2018-07-06T18:58:38.090Z,87.80
2018-07-06T19:01:13.046Z,88.00
2018-07-06T19:03:48.155Z,88.60
2018-07-06T19:06:22.527Z,87.90
2018-07-06T19:08:57.800Z,87.70
2018-07-06T19:11:33.524Z,87.90
2018-07-06T19:14:08.806Z,87.90
2018-07-06T19:16:43.672Z,87.90
2018-07-06T19:19:18.178Z,87.80
2018-07-06T19:21:52.832Z,88.00
2018-07-06T19:24:27.900Z,88.00
2018-07-06T19:27:02.696Z,87.80
2018-07-06T19:29:37.770Z,88.10
2018-07-06T19:32:12.601Z,88.00
2018-07-06T19:34:47.222Z,87.90
2018-07-06T19:37:22.727Z,87.70
2018-07-06T19:39:57.230Z,87.70
2018-07-06T19:42:32.569Z,87.60
2018-07-06T19:45:06.683Z,87.50
2018-07-06T19:47:42.001Z,87.40
2018-07-06T19:50:16.446Z,87.90
2018-07-06T19:52:51.348Z,87.40
2018-07-06T19:55:26.065Z,87.30
2018-07-06T19:58:00.898Z,87.10
2018-07-06T20:00:35.886Z,87.20
2018-07-06T20:03:10.324Z,86.80
2018-07-06T20:05:45.670Z,87.10
2018-07-06T20:08:20.502Z,87.20
2018-07-06T20:10:55.300Z,87.10
2018-07-06T20:13:30.029Z,87.10
2018-07-06T20:16:04.399Z,87.20
2018-07-06T20:18:39.215Z,87.10
2018-07-06T20:21:13.871Z,86.90
2018-07-06T20:23:48.438Z,87.10
2018-07-06T20:26:23.141Z,87.40
2018-07-06T20:28:58.710Z,87.60
2018-07-06T20:31:33.306Z,87.60
2018-07-06T20:34:08.962Z,88.20
2018-07-06T20:36:44.969Z,88.70
2018-07-06T20:39:19.409Z,88.30
2018-07-06T20:41:54.062Z,88.10
2018-07-06T20:44:30.127Z,87.90
2018-07-06T20:47:05.050Z,87.80
2018-07-06T20:49:40.158Z,87.80
2018-07-06T20:52:14.481Z,87.90
2018-07-06T20:54:49.531Z,87.90
2018-07-06T20:57:23.837Z,88.80
2018-07-06T20:59:58.279Z,88.20
2018-07-06T21:02:33.049Z,88.30
2018-07-06T21:05:07.935Z,88.20
2018-07-06T21:07:43.050Z,88.40
2018-07-06T21:10:17.657Z,88.70
2018-07-06T21:12:52.667Z,88.70
2018-07-06T21:15:26.880Z,88.60
2018-07-06T21:18:01.979Z,88.00
2018-07-06T21:20:36.570Z,88.00
2018-07-06T21:23:11.676Z,88.20
2018-07-06T21:25:45.894Z,88.40
2018-07-06T21:28:20.916Z,88.60
2018-07-06T21:30:55.699Z,88.90
2018-07-06T21:33:30.631Z,89.40
2018-07-06T21:36:05.720Z,89.70
2018-07-06T21:38:40.661Z,89.70
2018-07-06T21:41:15.367Z,90.00
2018-07-06T21:43:50.380Z,90.00
2018-07-06T21:46:24.841Z,90.00
2018-07-06T21:48:59.797Z,90.10
2018-07-06T21:51:34.373Z,90.20
2018-07-06T21:54:09.035Z,90.20
2018-07-06T21:56:43.537Z,90.40
2018-07-06T21:59:18.354Z,90.40
2018-07-06T22:01:53.096Z,90.40
2018-07-06T22:04:27.927Z,90.80
2018-07-06T22:07:02.917Z,90.40
2018-07-06T22:09:37.595Z,90.40
2018-07-06T22:12:12.424Z,90.30
2018-07-06T22:14:46.635Z,90.40
2018-07-06T22:17:21.402Z,90.30
2018-07-06T22:19:55.713Z,90.30
2018-07-06T22:25:05.684Z,90.30
2018-07-06T22:27:40.175Z,90.30
2018-07-06T22:30:14.787Z,90.40
2018-07-06T22:32:49.944Z,90.40
2018-07-06T22:35:24.667Z,90.40
2018-07-06T22:37:59.146Z,90.40
2018-07-06T22:40:33.937Z,90.40
2018-07-06T22:43:08.301Z,90.40
2018-07-06T22:45:43.411Z,90.40
2018-07-06T22:48:18.119Z,90.40
2018-07-06T22:50:52.649Z,90.40
2018-07-06T22:53:26.843Z,90.40
2018-07-06T22:56:01.285Z,90.40
2018-07-06T22:58:36.333Z,90.40
2018-07-06T23:01:11.554Z,90.50
2018-07-06T23:03:45.982Z,90.50
2018-07-06T23:06:20.822Z,90.50
2018-07-06T23:08:55.164Z,90.60
2018-07-06T23:11:30.514Z,90.60
2018-07-06T23:14:05.414Z,90.80
2018-07-06T23:16:40.170Z,90.80
2018-07-06T23:19:14.852Z,90.80
2018-07-06T23:21:49.597Z,90.90
2018-07-06T23:24:23.936Z,90.80
2018-07-06T23:26:59.070Z,90.80
2018-07-06T23:29:33.723Z,90.90
2018-07-06T23:32:08.466Z,90.80
2018-07-06T23:34:43.208Z,90.70
2018-07-06T23:37:17.760Z,90.60
2018-07-06T23:39:52.321Z,90.50
2018-07-06T23:42:26.872Z,90.50
2018-07-06T23:45:01.994Z,90.60
2018-07-06T23:47:36.925Z,90.70
2018-07-06T23:50:11.885Z,90.90
2018-07-06T23:52:46.513Z,90.70
2018-07-06T23:55:21.395Z,90.60
2018-07-06T23:57:55.971Z,90.80
